Time;durP1;ratioP1;P1;durP2;ratioP2;P2;SDS_P1;SDS_P2;PMS_P1;PMS_P2;Temp;Humidity;BMP_temperature;BMP_pressure;BME280_temperature;BME280_humidity;BME280_pressure;Samples;Min_cycle;Max_cycle;Signal;HPM_P1;HPM_P2
2022/09/18 00:00:05;;;;;;;2.50;1.27;;;;;;;;;;5030585;28;20104;-62
2022/09/18 00:02:31;;;;;;;3.38;1.00;;;;;;;;;;5030514;28;20018;-62
2022/09/18 00:04:57;;;;;;;3.58;1.42;;;;;;;;;;5030481;28;20028;-64
2022/09/18 00:07:24;;;;;;;1.33;1.23;;;;;;;;;;5030448;28;20061;-62
2022/09/18 00:09:50;;;;;;;4.45;1.10;;;;;;;;;;5030751;28;20029;-63
2022/09/18 00:12:16;;;;;;;1.17;1.17;;;;;;;;;;5030363;28;20112;-63
2022/09/18 00:14:43;;;;;;;2.20;1.27;;;;;;;;;;5030278;28;20096;-62
2022/09/18 00:17:09;;;;;;;1.40;1.30;;;;;;;;;;5030213;28;20057;-62
2022/09/18 00:19:36;;;;;;;1.30;1.20;;;;;;;;;;5028686;28;20033;-64
2022/09/18 00:22:02;;;;;;;1.55;1.08;;;;;;;;;;5029754;28;20029;-64
2022/09/18 00:24:28;;;;;;;2.78;1.60;;;;;;;;;;5030212;28;20058;-64
2022/09/18 00:26:54;;;;;;;2.10;1.30;;;;;;;;;;5030171;28;20021;-64
2022/09/18 00:29:20;;;;;;;1.50;1.40;;;;;;;;;;5030478;28;20025;-64
2022/09/18 00:31:46;;;;;;;3.20;1.23;;;;;;;;;;5030079;28;20513;-64
2022/09/18 00:34:14;;;;;;;1.65;1.55;;;;;;;;;;5028771;28;20041;-64
2022/09/18 00:36:41;;;;;;;1.13;1.02;;;;;;;;;;5030062;28;20032;-64
2022/09/18 00:39:07;;;;;;;2.47;1.40;;;;;;;;;;5030104;28;20473;-64
2022/09/18 00:41:35;;;;;;;3.35;1.02;;;;;;;;;;5030024;28;20029;-64
2022/09/18 00:44:20;;;;;;;1.73;1.40;;;;;;;;;;5030016;28;20049;-64
2022/09/18 00:46:46;;;;;;;3.22;1.30;;;;;;;;;;5029928;28;20026;-64
2022/09/18 00:49:12;;;;;;;2.33;1.50;;;;;;;;;;5029664;28;20359;-64
2022/09/18 00:51:39;;;;;;;3.33;1.65;;;;;;;;;;5028605;28;20373;-64
2022/09/18 00:54:21;;;;;;;1.58;1.38;;;;;;;;;;5028519;28;20580;-64
2022/09/18 00:56:48;;;;;;;1.30;1.20;;;;;;;;;;5028228;28;20551;-64
2022/09/18 00:59:18;;;;;;;1.48;1.38;;;;;;;;;;5030033;28;20373;-64
2022/09/18 01:01:44;;;;;;;1.20;1.10;;;;;;;;;;5029803;28;20104;-64
2022/09/18 01:04:11;;;;;;;1.38;1.27;;;;;;;;;;5029497;28;20451;-64
2022/09/18 01:06:47;;;;;;;1.20;1.10;;;;;;;;;;5029739;28;20030;-64
2022/09/18 01:09:19;;;;;;;4.22;1.25;;;;;;;;;;5029784;28;20017;-64
2022/09/18 01:11:55;;;;;;;1.20;1.15;;;;;;;;;;5028402;28;20157;-64
2022/09/18 01:14:38;;;;;;;2.70;1.17;;;;;;;;;;5029579;28;20026;-64
2022/09/18 01:17:10;;;;;;;1.17;1.08;;;;;;;;;;5029295;28;20427;-64
2022/09/18 01:19:39;;;;;;;1.33;1.23;;;;;;;;;;5029633;28;20033;-64
2022/09/18 01:22:29;;;;;;;0.88;0.73;;;;;;;;;;5028222;28;20789;-64
2022/09/18 01:25:07;;;;;;;3.65;1.45;;;;;;;;;;5034111;28;20405;-64
2022/09/18 01:27:36;;;;;;;1.80;1.38;;;;;;;;;;5029533;28;20026;-64
2022/09/18 01:30:04;;;;;;;3.08;1.40;;;;;;;;;;5029500;28;20079;-64
2022/09/18 01:33:06;;;;;;;3.50;1.40;;;;;;;;;;5029418;28;20070;-64
2022/09/18 01:35:51;;;;;;;3.15;1.67;;;;;;;;;;5073677;28;20457;-64
2022/09/18 01:38:39;;;;;;;1.98;1.08;;;;;;;;;;5056756;28;20488;-64
2022/09/18 01:41:09;;;;;;;4.88;1.30;;;;;;;;;;5056693;28;20484;-64
2022/09/18 01:43:35;;;;;;;1.90;1.67;;;;;;;;;;5073407;28;20040;-64
2022/09/18 01:46:06;;;;;;;1.55;1.45;;;;;;;;;;5056626;28;20051;-64
2022/09/18 01:48:35;;;;;;;5.15;1.60;;;;;;;;;;5073419;28;20029;-64
2022/09/18 01:51:05;;;;;;;2.28;1.40;;;;;;;;;;5056436;28;20040;-64
2022/09/18 01:53:37;;;;;;;2.08;1.25;;;;;;;;;;5073286;28;20044;-64
2022/09/18 01:56:15;;;;;;;2.72;1.75;;;;;;;;;;5073160;28;20531;-64
2022/09/18 01:58:42;;;;;;;7.80;1.98;;;;;;;;;;5073239;28;20032;-64
2022/09/18 02:01:11;;;;;;;15.15;7.22;;;;;;;;;;5073102;28;20032;-64
2022/09/18 02:03:58;;;;;;;6.13;4.32;;;;;;;;;;5073021;28;20102;-64
2022/09/18 02:06:47;;;;;;;5.10;1.98;;;;;;;;;;5073086;28;20428;-64
2022/09/18 02:09:13;;;;;;;1.23;1.13;;;;;;;;;;5057117;28;20032;-64
2022/09/18 02:11:42;;;;;;;2.15;1.42;;;;;;;;;;5032287;28;20029;-64
2022/09/18 02:14:08;;;;;;;4.57;1.33;;;;;;;;;;5032075;28;20369;-64
2022/09/18 02:16:37;;;;;;;1.10;1.00;;;;;;;;;;5031891;28;20033;-64
2022/09/18 02:19:05;;;;;;;1.63;1.35;;;;;;;;;;5032418;28;20078;-64
2022/09/18 02:21:32;;;;;;;1.20;1.10;;;;;;;;;;5030821;28;20053;-64
2022/09/18 02:24:04;;;;;;;1.65;1.40;;;;;;;;;;5031644;28;20077;-64
2022/09/18 02:26:31;;;;;;;1.85;1.45;;;;;;;;;;5032087;28;20044;-64
2022/09/18 02:28:57;;;;;;;1.65;1.10;;;;;;;;;;5030971;28;20408;-64
2022/09/18 02:31:23;;;;;;;1.77;1.33;;;;;;;;;;5031965;28;20022;-64
2022/09/18 02:33:49;;;;;;;1.00;1.00;;;;;;;;;;5031816;28;20022;-64
2022/09/18 02:36:28;;;;;;;2.22;1.27;;;;;;;;;;5030581;28;20037;-64
2022/09/18 02:39:13;;;;;;;1.92;1.23;;;;;;;;;;5031831;28;20032;-64
2022/09/18 02:41:39;;;;;;;2.40;1.30;;;;;;;;;;5031790;28;20028;-64
2022/09/18 02:44:11;;;;;;;2.65;1.23;;;;;;;;;;5031634;28;20044;-64
2022/09/18 02:46:41;;;;;;;5.63;1.38;;;;;;;;;;5031684;28;20040;-64
2022/09/18 02:49:14;;;;;;;0.90;0.90;;;;;;;;;;5031980;28;20075;-63
2022/09/18 02:51:51;;;;;;;1.55;1.00;;;;;;;;;;5031641;28;20018;-64
2022/09/18 02:54:32;;;;;;;3.15;1.40;;;;;;;;;;5031538;28;20445;-64
2022/09/18 02:57:00;;;;;;;1.65;1.08;;;;;;;;;;5031258;28;20056;-64
2022/09/18 02:59:30;;;;;;;1.20;1.10;;;;;;;;;;5031544;28;20042;-64
2022/09/18 03:01:57;;;;;;;1.23;1.10;;;;;;;;;;5031511;28;20030;-64
2022/09/18 03:04:25;;;;;;;2.15;1.55;;;;;;;;;;5031424;28;20030;-64
2022/09/18 03:06:51;;;;;;;2.75;1.30;;;;;;;;;;5031386;28;20354;-64
2022/09/18 03:09:17;;;;;;;2.97;1.65;;;;;;;;;;5031390;28;20057;-64
2022/09/18 03:11:44;;;;;;;5.07;1.50;;;;;;;;;;5031029;28;20025;-64
2022/09/18 03:14:10;;;;;;;1.20;1.20;;;;;;;;;;5029827;28;20022;-64
2022/09/18 03:16:36;;;;;;;2.95;1.35;;;10.30;99.90;;;;;;5029933;28;20022;-64
2022/09/18 03:19:02;;;;;;;3.78;1.55;;;10.30;99.90;;;;;;5030862;28;20025;-64
2022/09/18 03:21:28;;;;;;;1.40;1.30;;;10.30;99.90;;;;;;5030875;28;20351;-64
2022/09/18 03:23:54;;;;;;;4.82;1.95;;;;;;;;;;5031037;28;20056;-64
2022/09/18 03:26:21;;;;;;;3.13;1.75;;;;;;;;;;5029840;28;20419;-64
2022/09/18 03:28:47;;;;;;;2.45;1.50;;;;;;;;;;5031039;28;20037;-64
2022/09/18 03:31:13;;;;;;;5.38;1.70;;;;;;;;;;5030756;28;20430;-64
2022/09/18 03:33:39;;;;;;;2.22;1.30;;;;;;;;;;5030996;28;20030;-64
2022/09/18 03:36:06;;;;;;;5.13;1.50;;;;;;;;;;5030859;28;20041;-64
2022/09/18 03:38:32;;;;;;;2.83;1.30;;;;;;;;;;5030874;28;20021;-63
2022/09/18 03:40:58;;;;;;;2.38;1.90;;;;;;;;;;5030902;28;20032;-63
2022/09/18 03:43:25;;;;;;;5.32;2.10;;;;;;;;;;5030831;28;20477;-64
2022/09/18 03:45:51;;;;;;;4.85;2.40;;;;;;;;;;5030824;28;20036;-64
2022/09/18 03:48:19;;;;;;;1.83;1.70;;;;;;;;;;5030737;28;20049;-63
2022/09/18 03:50:47;;;;;;;6.40;2.45;;;;;;;;;;5030805;28;20440;-64
2022/09/18 03:53:13;;;;;;;2.80;1.45;;;;;;;;;;5029367;28;20021;-64
2022/09/18 03:55:39;;;;;;;2.15;1.50;;;;;;;;;;5030100;28;20030;-63
2022/09/18 03:58:06;;;;;;;5.35;1.90;;;;;;;;;;5030246;28;20029;-64
2022/09/18 04:00:32;;;;;;;4.10;1.60;;;;;;;;;;5030646;28;20033;-64
2022/09/18 04:02:58;;;;;;;4.13;1.73;;;;;;;;;;5030524;28;20043;-64
2022/09/18 04:05:24;;;;;;;1.58;1.27;;;;;;;;;;5030525;28;20029;-63
2022/09/18 04:07:50;;;;;;;3.08;1.30;;;;;;;;;;5030478;28;20104;-64
2022/09/18 04:10:17;;;;;;;3.88;1.58;;;;;;;;;;5030479;28;20104;-64
2022/09/18 04:12:46;;;;;;;5.63;1.35;;;;;;;;;;5028579;28;20048;-63
2022/09/18 04:15:13;;;;;;;4.18;1.50;;;;;;;;;;5030312;28;20024;-64
2022/09/18 04:17:40;;;;;;;3.25;1.33;;;;;;;;;;5030345;28;20026;-64
2022/09/18 04:20:07;;;;;;;1.90;1.30;;;;;;;;;;5030642;28;20057;-64
2022/09/18 04:22:33;;;;;;;4.35;1.60;;;;;;;;;;5030046;28;20032;-64
2022/09/18 04:24:59;;;;;;;3.85;1.50;;;;;;;;;;5030556;28;20124;-64
2022/09/18 04:27:28;;;;;;;3.03;1.38;;;;;;;;;;5029405;28;20339;-63
2022/09/18 04:29:54;;;;;;;4.10;1.58;;;;;;;;;;5030253;28;20022;-64
2022/09/18 04:32:20;;;;;;;4.00;1.55;;;;;;;;;;5030123;28;20108;-64
2022/09/18 04:34:46;;;;;;;3.45;1.73;;;;;;;;;;5030032;28;20033;-64
2022/09/18 04:37:12;;;;;;;6.43;1.67;;;;;;;;;;5028810;28;20025;-64
2022/09/18 04:39:39;;;;;;;2.10;1.25;;;;;;;;;;5030076;28;20093;-64
2022/09/18 04:42:05;;;;;;;2.05;1.67;;;;;;;;;;5030141;28;20522;-64
2022/09/18 04:44:31;;;;;;;1.65;1.45;;;;;;;;;;5028710;28;20039;-64
2022/09/18 04:46:57;;;;;;;3.38;2.22;;;;;;;;;;5029694;28;20022;-64
2022/09/18 04:49:23;;;;;;;4.78;2.08;;;;;;;;;;5030253;28;20030;-63
2022/09/18 04:51:50;;;;;;;7.47;4.55;;;;;;;;;;5030218;28;20077;-64
2022/09/18 04:54:16;;;;;;;4.20;3.75;;;;;;;;;;5029844;28;20037;-64
2022/09/18 04:56:42;;;;;;;4.57;2.63;;;;;;;;;;5029861;28;20473;-64
2022/09/18 04:59:08;;;;;;;2.97;2.50;;;;;;;;;;5030109;28;20050;-64
2022/09/18 05:01:35;;;;;;;4.43;2.95;;;;;;;;;;5029816;28;20029;-63
2022/09/18 05:04:01;;;;;;;3.15;2.10;;;;;;;;;;5029485;28;20030;-64
2022/09/18 05:06:27;;;;;;;2.47;1.85;;;;;;;;;;5030032;28;20037;-64
2022/09/18 05:08:53;;;;;;;4.07;2.25;;;;;;;;;;5032592;28;20049;-63
2022/09/18 05:11:20;;;;;;;3.85;2.25;;;;;;;;;;5033229;28;20022;-63
2022/09/18 05:13:51;;;;;;;4.38;3.15;;;;;;;;;;5033072;28;20030;-63
2022/09/18 05:16:17;;;;;;;3.60;2.88;;;;;;;;;;5032982;28;20056;-64
2022/09/18 05:18:43;;;;;;;3.70;3.40;;;;;;;;;;5033040;28;20025;-64
2022/09/18 05:21:10;;;;;;;6.13;3.92;;;;;;;;;;5033089;28;20026;-63
2022/09/18 05:23:36;;;;;;;5.93;3.58;;;;;;;;;;5033081;28;20124;-63
2022/09/18 05:26:02;;;;;;;7.45;3.38;;;;;;;;;;5032938;28;20036;-64
2022/09/18 05:28:28;;;;;;;3.80;2.97;;;;;;;;;;5032911;28;20030;-64
2022/09/18 05:30:59;;;;;;;4.38;3.33;;;;;;;;;;5032871;28;20033;-63
2022/09/18 05:33:25;;;;;;;3.25;2.58;;;;;;;;;;5032757;28;20026;-63
2022/09/18 05:35:55;;;;;;;5.97;2.42;;;;;;;;;;5032636;28;20048;-63
2022/09/18 05:38:21;;;;;;;4.95;2.20;;;;;;;;;;5038258;27;20108;-63
2022/09/18 05:40:47;;;;;;;5.57;2.10;;;;;;;;;;5063566;27;20056;-63
2022/09/18 05:43:14;;;;;;;2.60;2.38;;;;;;;;;;5032189;28;20116;-63
2022/09/18 05:45:40;;;;;;;4.20;2.97;;;;;;;;;;5031834;28;20036;-63
2022/09/18 05:48:06;;;;;;;5.80;3.92;;;;;;;;;;5032091;28;20093;-63
2022/09/18 05:50:33;;;;;;;9.10;4.47;;;;;;;;;;5031929;28;20028;-63
2022/09/18 05:53:15;;;;;;;5.40;3.25;;;;;;;;;;5031983;28;20474;-63
2022/09/18 05:55:42;;;;;;;5.30;3.20;;;;;;;;;;5032230;28;20060;-63
2022/09/18 05:58:11;;;;;;;2.85;2.65;;;;;;;;;;5030884;28;20077;-63
2022/09/18 06:00:37;;;;;;;3.55;2.50;;;;;;;;;;5032453;28;20033;-63
2022/09/18 06:03:05;;;;;;;3.70;2.22;;;;;;;;;;5032080;28;20025;-63
2022/09/18 06:05:32;;;;;;;3.65;2.65;;;;;;;;;;5030887;28;20036;-63
2022/09/18 06:07:59;;;;;;;3.85;2.40;;;;;;;;;;5032036;28;20021;-63
2022/09/18 06:10:25;;;;;;;3.22;2.10;;;;;;;;;;5030743;28;20026;-63
2022/09/18 06:12:59;;;;;;;4.20;2.38;;;;;;;;;;5030741;28;20032;-63
2022/09/18 06:15:25;;;;;;;3.70;2.33;;;;;;;;;;5031978;28;20036;-63
2022/09/18 06:17:51;;;;;;;4.28;2.00;;;;;;;;;;5031893;28;20025;-63
2022/09/18 06:20:18;;;;;;;4.90;1.90;;;;;;;;;;5031125;28;20045;-63
2022/09/18 06:22:44;;;;;;;6.57;2.40;;;;;;;;;;5030074;28;20369;-63
2022/09/18 06:25:11;;;;;;;3.38;1.88;;;;;;;;;;5032156;28;20112;-63
2022/09/18 06:27:37;;;;;;;2.50;1.90;;;;;;;;;;5031189;28;20384;-63
2022/09/18 06:30:04;;;;;;;2.17;1.45;;;;;;;;;;5031598;28;20025;-63
2022/09/18 06:32:30;;;;;;;4.95;2.15;;;;;;;;;;5031500;28;20028;-63
2022/09/18 06:34:56;;;;;;;1.75;1.58;;;;;;;;;;5031371;28;20025;-63
2022/09/18 06:37:22;;;;;;;2.22;1.52;;;;;;;;;;5031161;28;20033;-63
2022/09/18 06:39:49;;;;;;;3.13;1.80;;;;;;;;;;5031604;28;20018;-63
2022/09/18 06:42:15;;;;;;;2.33;2.13;;;;;;;;;;5031449;28;20033;-63
2022/09/18 06:44:42;;;;;;;3.97;1.50;;;;;;;;;;5029945;28;20396;-63
2022/09/18 06:47:08;;;;;;;3.88;1.40;;;;;;;;;;5031226;28;20060;-63
2022/09/18 06:49:34;;;;;;;2.67;2.13;;;;;;;;;;5031418;28;20526;-63
2022/09/18 06:52:00;;;;;;;1.65;1.55;;;;;;;;;;5029827;28;20082;-64
2022/09/18 06:54:26;;;;;;;2.45;2.22;;;;;;;;;;5030946;28;20021;-63
2022/09/18 06:56:52;;;;;;;1.75;1.20;;;;;;;;;;5029664;28;20485;-63
2022/09/18 06:59:19;;;;;;;5.03;1.40;;;;;;;;;;5031030;28;20020;-63
2022/09/18 07:01:45;;;;;;;;;;;;;;;;;;5031375;28;20034;-63
2022/09/18 07:04:11;;;;;;;;;;;;;;;;;;5030566;28;20268;-63
2022/09/18 07:06:37;;;;;;;;;;;;;;;;;;5030123;28;20379;-63
2022/09/18 07:09:03;;;;;;;1.95;1.00;;;;;;;;;;5031013;28;19928;-64
2022/09/18 07:11:29;;;;;;;;;;;;;;;;;;5031790;28;20078;-64
2022/09/18 07:13:55;;;;;;;;;;;;;;;;;;5030165;28;19905;-64
2022/09/18 07:16:21;;;;;;;;;;;;;;;;;;5031150;28;19917;-64
2022/09/18 07:18:47;;;;;;;;;;;;;;;;;;5030060;28;19973;-64
2022/09/18 07:21:13;;;;;;;;;;;;;;;;;;5030914;28;20260;-64
2022/09/18 07:23:39;;;;;;;;;;;;;;;;;;5038947;28;19921;-65
2022/09/18 07:26:05;;;;;;;;;;;;;;;;;;5040824;28;20617;-64
2022/09/18 07:28:32;;;;;;;1.85;1.50;;;;;;;;;;5038980;28;20396;-64
2022/09/18 07:31:05;;;;;;;2.85;1.15;;;;;;;;;;5037485;28;20013;-64
2022/09/18 07:33:31;;;;;;;1.67;1.15;;;;;;;;;;5039068;28;20029;-64
2022/09/18 07:36:00;;;;;;;1.45;0.98;;;;;;;;;;5036963;28;20025;-64
2022/09/18 07:38:27;;;;;;;2.55;1.10;;;;;;;;;;5038841;27;20021;-63
2022/09/18 07:40:53;;;;;;;;;;;;;;;;;;5038830;28;20073;-63
2022/09/18 07:43:19;;;;;;;;;;;;;;;;;;5040318;27;19915;-63
2022/09/18 07:45:45;;;;;;;;;;;;;;;;;;5037457;28;20405;-63
2022/09/18 07:48:11;;;;;;;;;;;;;;;;;;5039463;27;19955;-63
2022/09/18 07:50:37;;;;;;;;;;;;;;;;;;5038687;28;19912;-63
2022/09/18 07:53:04;;;;;;;;;;;;;;;;;;5038669;28;20068;-63
2022/09/18 07:55:30;;;;;;;;;;;;;;;;;;5040126;28;19912;-63
2022/09/18 07:57:56;;;;;;;;;;;;;;;;;;5039834;28;20265;-63
2022/09/18 08:00:22;;;;;;;;;;;;;;;;;;5038556;28;20353;-63
2022/09/18 08:02:48;;;;;;;;;;;;;;;;;;5040797;28;20096;-63
2022/09/18 08:05:14;;;;;;;;;;;;;;;;;;5035801;28;20349;-63
2022/09/18 08:07:40;;;;;;;;;;;;;;;;;;5030985;28;20345;-63
2022/09/18 08:10:06;;;;;;;1.60;0.80;;;;;;;;;;5029260;28;20372;-62
2022/09/18 08:12:33;;;;;;;3.72;1.30;;;;;;;;;;5029215;28;20026;-64
2022/09/18 08:14:59;;;;;;;2.40;1.40;;;;;;;;;;5030249;28;20036;-64
2022/09/18 08:17:26;;;;;;;2.88;1.45;;;;;;;;;;5030380;28;20026;-66
2022/09/18 08:19:52;;;;;;;;;;;;;;;;;;5030501;28;20036;-64
2022/09/18 08:22:18;;;;;;;;;;;;;;;;;;5030764;28;19961;-66
2022/09/18 08:24:44;;;;;;;;;;;;;;;;;;5030865;28;19917;-65
2022/09/18 08:27:10;;;;;;;;;;;10.20;99.90;;;;;;5030722;28;19947;-65
2022/09/18 08:29:36;;;;;;;;;;;;;;;;;;5029612;28;19952;-66
2022/09/18 08:32:02;;;;;;;;;;;;;;;;;;5030702;28;19916;-65
2022/09/18 08:34:28;;;;;;;;;;;;;;;;;;5030554;28;19909;-65
2022/09/18 08:36:53;;;;;;;;;;;16.70;99.90;;;;;;5030284;28;19962;-65
2022/09/18 08:39:20;;;;;;;;;;;;;;;;;;5030542;28;19905;-65
2022/09/18 08:41:46;;;;;;;;;;;;;;;;;;5030573;28;19916;-65
2022/09/18 08:44:11;;;;;;;;;;;;;;;;;;5033602;28;20593;-66
2022/09/18 08:46:37;;;;;;;;;;;;;;;;;;5032751;28;19969;-65
2022/09/18 08:49:03;;;;;;;;;;;;;;;;;;5034053;28;20376;-65
2022/09/18 08:51:29;;;;;;;;;;;;;;;;;;5032703;28;19909;-67
2022/09/18 08:53:55;;;;;;;;;;;;;;;;;;5033931;28;20452;-65
2022/09/18 08:56:22;;;;;;;;;;;;;;;;;;5032617;28;19948;-65
2022/09/18 08:58:48;;;;;;;;;;;;;;;;;;5033869;28;20364;-65
2022/09/18 09:01:14;;;;;;;;;;;;;;;;;;5032875;28;19905;-65
2022/09/18 09:03:40;;;;;;;;;;;;;;;;;;5033851;28;19913;-65
2022/09/18 09:06:06;;;;;;;;;;;;;;;;;;5033735;28;19959;-64
2022/09/18 09:08:32;;;;;;;;;;;;;;;;;;5033613;28;20275;-64
2022/09/18 09:10:58;;;;;;;;;;;;;;;;;;5033001;27;19905;-69
2022/09/18 09:13:24;;;;;;;;;;;;;;;;;;5051275;27;20364;-66
2022/09/18 09:15:50;;;;;;;;;;;;;;;;;;5052459;28;19948;-69
2022/09/18 09:18:16;;;;;;;;;;;;;;;;;;5053341;28;19912;-70
2022/09/18 09:20:44;;;;;;;;;;;;;;;;;;5053185;28;19905;-70
2022/09/18 09:23:10;;;;;;;;;;;;;;;;;;5053142;28;19928;-69
2022/09/18 09:25:36;;;;;;;;;;;;;;;;;;5053127;28;19913;-71
2022/09/18 09:28:02;;;;;;;;;;;;;;;;;;5053163;28;19911;-70
2022/09/18 09:30:28;;;;;;;;;;;;;;;;;;5052831;28;19935;-71
2022/09/18 09:32:54;;;;;;;;;;;;;;;;;;5053083;28;19905;-65
2022/09/18 09:35:20;;;;;;;;;;;;;;;;;;5052928;28;20060;-65
2022/09/18 09:37:46;;;;;;;;;;;;;;;;;;5053009;28;20243;-69
2022/09/18 09:40:12;;;;;;;;;;;;;;;;;;5084852;27;19903;-66
2022/09/18 09:42:38;;;;;;;;;;;;;;;;;;5158165;27;19903;-66
2022/09/18 09:45:04;;;;;;;;;;;;;;;;;;5158344;27;20247;-66
2022/09/18 09:47:30;;;;;;;;;;;;;;;;;;5156743;27;19925;-66
2022/09/18 09:49:56;;;;;;;;;;;;;;;;;;5158179;27;19911;-69
2022/09/18 09:52:22;;;;;;;;;;;;;;;;;;5157875;27;19968;-70
2022/09/18 09:54:48;;;;;;;;;;;;;;;;;;5156816;27;19911;-70
2022/09/18 09:57:14;;;;;;;;;;;;;;;;;;5158057;27;20343;-70
2022/09/18 09:59:40;;;;;;;;;;;;;;;;;;5157614;27;20346;-69
2022/09/18 10:02:06;;;;;;;;;;;;;;;;;;5157847;27;20599;-71
2022/09/18 10:04:32;;;;;;;;;;;;;;;;;;5157870;27;19975;-69
2022/09/18 10:06:58;;;;;;;;;;;;;;;;;;5157812;27;19946;-70
2022/09/18 10:09:24;;;;;;;;;;;;;;;;;;5156067;27;20047;-71
2022/09/18 10:12:12;;;;;;;;;;;20.40;99.90;;;;;;5158040;27;19910;-70
2022/09/18 10:14:38;;;;;;;;;;;;;;;;;;5148892;27;19907;-71
2022/09/18 10:17:04;;;;;;;;;;;;;;;;;;5157942;27;19914;-69
2022/09/18 10:19:30;;;;;;;;;;;;;;;;;;5157527;27;19903;-67
2022/09/18 10:21:56;;;;;;;;;;;;;;;;;;5157603;27;20346;-68
2022/09/18 10:24:29;;;;;;;;;;;20.40;98.70;;;;;;5157537;27;20635;-67
2022/09/18 10:26:55;;;;;;;;;;;21.60;95.70;;;;;;5157459;27;19907;-67
2022/09/18 10:29:21;;;;;;;;;;;21.90;95.60;;;;;;5155968;27;20247;-67
2022/09/18 10:31:51;;;;;;;;;;;22.30;96.20;;;;;;5157241;27;20406;-67
2022/09/18 10:34:35;;;;;;;;;;;21.90;93.30;;;;;;5157256;27;19907;-70
2022/09/18 10:37:01;;;;;;;;;;;23.00;92.40;;;;;;5157540;27;19913;-68
2022/09/18 10:39:28;;;;;;;;;;;23.30;92.60;;;;;;5156695;27;19903;-68
2022/09/18 10:42:03;;;;;;;;;;;23.60;91.20;;;;;;5157147;27;20004;-70
2022/09/18 10:44:33;;;;;;;;;;;24.20;87.10;;;;;;5117333;27;19919;-67
2022/09/18 10:46:59;;;;;;;;;;;24.40;86.90;;;;;;5035640;28;19909;-67
2022/09/18 10:49:29;;;;;;;;;;;24.90;84.60;;;;;;5033158;28;19916;-72
2022/09/18 10:52:13;;;;;;;;;;;25.30;81.10;;;;;;5046121;28;19920;-66
2022/09/18 10:54:39;;;;;;;;;;;25.40;79.60;;;;;;5051823;28;20570;-65
2022/09/18 10:57:23;;;;;;;;;;;24.30;85.40;;;;;;5051878;28;20005;-67
2022/09/18 10:59:49;;;;;;;;;;;25.00;82.70;;;;;;5051699;28;19904;-68
2022/09/18 11:02:18;;;;;;;;;;;25.10;79.30;;;;;;5051759;28;20606;-68
2022/09/18 11:04:45;;;;;;;;;;;25.50;77.60;;;;;;5051409;28;19951;-68
2022/09/18 11:07:11;;;;;;;;;;;;;;;;;;5050226;28;20253;-66
2022/09/18 11:09:37;;;;;;;;;;;;;;;;;;5050265;28;19953;-66
2022/09/18 11:12:03;;;;;;;;;;;27.90;78.00;;;;;;5051446;28;20003;-67
2022/09/18 11:14:31;;;;;;;;;;;27.70;68.20;;;;;;5051569;28;19929;-66
2022/09/18 11:16:59;;;;;;;;;;;27.70;78.20;;;;;;5051197;28;19915;-68
2022/09/18 11:19:25;;;;;;;;;;;28.10;71.30;;;;;;5051340;28;19957;-70
2022/09/18 11:21:54;;;;;;;;;;;27.70;69.80;;;;;;5046104;28;19919;-70
2022/09/18 11:24:21;;;;;;;;;;;28.30;71.30;;;;;;5037447;28;20007;-70
2022/09/18 11:26:48;;;;;;;;;;;28.90;67.50;;;;;;5037907;28;19909;-70
2022/09/18 11:29:20;;;;;;;;;;;28.40;67.50;;;;;;5036804;28;19908;-72
2022/09/18 11:31:48;;;;;;;;;;;28.10;67.00;;;;;;5041900;28;19912;-71
2022/09/18 11:34:24;;;;;;;;;;;28.40;65.00;;;;;;5041864;28;19987;-71
2022/09/18 11:36:52;;;;;;;;;;;28.40;64.20;;;;;;5038102;28;19944;-68
2022/09/18 11:39:23;;;;;;;;;;;29.20;94.70;;;;;;5034044;28;19913;-69
2022/09/18 11:41:49;;;;;;;;;;;;;;;;;;5036656;28;19912;-68
2022/09/18 11:44:15;;;;;;;;;;;;;;;;;;5037855;28;19909;-69
2022/09/18 11:46:44;;;;;;;;;;;29.10;94.70;;;;;;5036337;28;19916;-68
2022/09/18 11:49:11;;;;;;;;;;;28.90;59.60;;;;;;5031327;28;19912;-69
2022/09/18 11:51:37;;;;;;;;;;;27.20;59.60;;;;;;5031019;28;20047;-69
2022/09/18 11:54:06;;;;;;;;;;;24.40;62.30;;;;;;5031159;28;19991;-69
2022/09/18 11:56:36;;;;;;;;;;;25.60;65.20;;;;;;5029660;28;19909;-67
2022/09/18 11:59:10;;;;;;;;;;;26.80;65.70;;;;;;5029746;28;19992;-67
2022/09/18 12:01:46;;;;;;;;;;;28.60;61.60;;;;;;5029521;28;19909;-68
2022/09/18 12:04:38;;;;;;;;;;;29.40;58.60;;;;;;5029661;28;19988;-67
2022/09/18 12:07:13;;;;;;;;;;;29.20;60.20;;;;;;5032833;28;19914;-69
2022/09/18 12:09:41;;;;;;;;;;;29.50;58.50;;;;;;5052193;27;19908;-64
2022/09/18 12:12:07;;;;;;;;;;;29.60;58.70;;;;;;5050612;28;19911;-66
2022/09/18 12:14:39;;;;;;;;;;;28.90;57.70;;;;;;5050562;28;19912;-66
2022/09/18 12:17:15;;;;;;;;;;;26.30;62.30;;;;;;5049528;28;20283;-67
2022/09/18 12:19:48;;;;;;;;;;;28.10;62.80;;;;;;5049700;28;19912;-65
2022/09/18 12:22:16;;;;;;;;;;;29.00;59.70;;;;;;5050607;28;20356;-66
2022/09/18 12:24:42;;;;;;;;;;;27.20;58.90;;;;;;5050600;28;20465;-67
2022/09/18 12:27:31;;;;;;;;;;;25.40;62.70;;;;;;5050417;28;19909;-65
2022/09/18 12:30:06;;;;;;;;;;;24.50;66.90;;;;;;5050329;28;19904;-65
2022/09/18 12:32:42;;;;;;;;;;;28.30;64.10;;;;;;5049011;28;20420;-66
2022/09/18 12:35:17;;;;;;;;;;;28.80;61.80;;;;;;5050285;28;19909;-64
2022/09/18 12:37:46;;;;;;;;;;;29.80;60.20;;;;;;5050197;28;20007;-67
2022/09/18 12:40:12;;;;;;;;;;;;;;;;;;5050432;28;19947;-68
2022/09/18 12:42:38;;;;;;;;;;;28.10;56.20;;;;;;5050225;28;19904;-67
2022/09/18 12:45:04;;;;;;;;;;;25.70;59.30;;;;;;5048919;28;20440;-66
2022/09/18 12:47:43;;;;;;;;;;;24.40;62.70;;;;;;5048440;28;20000;-68
2022/09/18 12:50:25;;;;;;;;;;;27.90;59.00;;;;;;5048834;28;19941;-64
2022/09/18 12:53:09;;;;;;;;;;;26.80;57.30;;;;;;5050497;28;19956;-67
2022/09/18 12:55:38;;;;;;;;;;;28.40;57.90;;;;;;5048665;28;19908;-66
2022/09/18 12:58:24;;;;;;;;;;;29.20;56.00;;;;;;5050268;28;19920;-66
2022/09/18 13:00:51;;;;;;;;;;;30.40;56.70;;;;;;5051765;28;19905;-68
2022/09/18 13:03:30;;;;;;;;;;;29.80;54.30;;;;;;5048716;28;19995;-65
2022/09/18 13:05:58;;;;;;;;;;;29.70;54.00;;;;;;5048503;28;19904;-71
2022/09/18 13:08:33;;;;;;;;;;;27.10;55.80;;;;;;5048627;28;19983;-66
2022/09/18 13:11:00;;;;;;;;;;;28.90;56.70;;;;;;5049850;28;19904;-66
2022/09/18 13:13:43;;;;;;;;;;;29.90;55.50;;;;;;5047454;28;20322;-66
2022/09/18 13:16:14;;;;;;;;;;;30.60;55.40;;;;;;5049746;28;19912;-66
2022/09/18 13:18:51;;;;;;;;;;;30.20;54.60;;;;;;5048457;28;19909;-67
2022/09/18 13:21:27;;;;;;;;;;;30.60;55.30;;;;;;5049735;28;19909;-65
2022/09/18 13:23:53;;;;;;;;;;;31.60;54.60;;;;;;5047759;28;19928;-65
2022/09/18 13:26:20;;;;;;;;;;;31.40;53.20;;;;;;5049553;28;19912;-65
2022/09/18 13:28:45;;;;;;;;;;;31.70;54.90;;;;;;5050567;28;19962;-64
2022/09/18 13:31:23;;;;;;;;;;;32.10;53.00;;;;;;5051823;28;20289;-66
2022/09/18 13:33:59;;;;;;;;;;;31.90;52.90;;;;;;5052915;28;19952;-67
2022/09/18 13:36:34;;;;;;;;;;;31.70;53.10;;;;;;5051335;28;19997;-67
2022/09/18 13:39:02;;;;;;;;;;;31.90;53.30;;;;;;5052901;28;19908;-67
2022/09/18 13:41:39;;;;;;;;;;;32.20;53.60;;;;;;5052941;28;19905;-67
2022/09/18 13:44:05;;;;;;;;;;;32.50;53.50;;;;;;5052090;28;19999;-68
2022/09/18 13:46:31;;;;;;;;;;;;;;;;;;5051558;28;20003;-70
2022/09/18 13:48:58;;;;;;;;;;;32.80;51.00;;;;;;5051438;28;20330;-69
2022/09/18 13:51:30;;;;;;;;;;;33.50;52.20;;;;;;5051504;28;19996;-69
2022/09/18 13:54:16;;;;;;;;;;;30.20;50.70;;;;;;5051312;28;19909;-70
2022/09/18 13:57:00;;;;;;;;;;;30.10;54.30;;;;;;5052440;28;19913;-69
2022/09/18 13:59:43;;;;;;;;;;;30.30;53.20;;;;;;5051537;28;20360;-68
2022/09/18 14:02:25;;;;;;;;;;;30.00;52.00;;;;;;5052633;28;19905;-68
2022/09/18 14:05:02;;;;;;;;;;;28.80;53.70;;;;;;5051206;28;19905;-70
2022/09/18 14:07:31;;;;;;;;;;;26.70;55.70;;;;;;5051255;28;19912;-66
2022/09/18 14:09:58;;;;;;;;;;;24.70;58.60;;;;;;5052321;28;19912;-66
2022/09/18 14:12:25;;;;;;;;;;;23.80;61.10;;;;;;5052469;28;19905;-68
2022/09/18 14:15:00;;;;;;;;;;;23.30;63.70;;;;;;5051080;28;20007;-68
2022/09/18 14:17:27;;;;;;;;;;;25.50;60.80;;;;;;5050500;27;20003;-69
2022/09/18 14:20:08;;;;;;;;;;;25.20;58.90;;;;;;5051844;27;20009;-65
2022/09/18 14:22:37;;;;;;;;;;;23.60;61.20;;;;;;5052154;28;19912;-67
2022/09/18 14:25:05;;;;;;;;;;;22.40;61.90;;;;;;5050800;27;19915;-69
2022/09/18 14:27:52;;;;;;;;;;;21.80;61.00;;;;;;5052268;28;20003;-70
2022/09/18 14:30:17;;;;;;;;;;;21.40;61.90;;;;;;5052258;28;19905;-67
2022/09/18 14:33:06;;;;;;;;;;;21.00;63.50;;;;;;5052079;28;20268;-70
2022/09/18 14:35:34;;;;;;;;;;;20.60;65.50;;;;;;5057238;28;20280;-69
2022/09/18 14:38:00;;;;;;;;;;;20.50;65.10;;;;;;5051763;28;20280;-69
2022/09/18 14:40:28;;;;;;;;;;;20.40;65.50;;;;;;5050238;28;19909;-67
2022/09/18 14:42:54;;;;;;;;;;;20.30;65.40;;;;;;5051947;28;19944;-66
2022/09/18 14:45:25;;;;;;;;;;;20.50;66.50;;;;;;5050583;28;20047;-67
2022/09/18 14:47:51;;;;;;;;;;;20.30;64.80;;;;;;5050824;28;20271;-65
2022/09/18 14:50:19;;;;;;;;;;;20.30;65.60;;;;;;5051955;28;19909;-65
2022/09/18 14:52:45;;;;;;;;;;;20.20;68.00;;;;;;5050391;28;19958;-65
2022/09/18 14:55:16;;;;;;;;;;;19.90;69.40;;;;;;5051830;28;20332;-66
2022/09/18 14:57:53;;;;;;;;;;;19.90;70.00;;;;;;5050561;28;19909;-65
2022/09/18 15:00:25;;;;;;;;;;;19.80;71.20;;;;;;5051791;28;19905;-66
2022/09/18 15:02:52;;;;;;;;;;;19.70;72.00;;;;;;5051664;28;19905;-68
2022/09/18 15:05:19;;;;;;;;;;;;;;;;;;5050271;28;20015;-66
2022/09/18 15:07:53;;;;;;;;;;;19.50;74.20;;;;;;5050376;27;19904;-68